Time;durP1;ratioP1;P1;durP2;ratioP2;P2;SDS_P1;SDS_P2;PMS_P1;PMS_P2;Temp;Humidity;BMP_temperature;BMP_pressure;BME280_temperature;BME280_humidity;BME280_pressure;Samples;Min_cycle;Max_cycle;Signal;HPM_P1;HPM_P2
2023/04/03 00:02:07;;;;;;;0.63;0.20;;;10.90;79.40;;;;;;5011135;28;20484;-71
2023/04/03 00:04:33;;;;;;;0.68;0.20;;;10.70;79.70;;;;;;5010847;28;20484;-71
2023/04/03 00:06:59;;;;;;;1.60;0.17;;;11.00;79.10;;;;;;5009689;28;20068;-72
2023/04/03 00:09:24;;;;;;;0.85;0.15;;;11.10;79.00;;;;;;5007061;28;20485;-72
2023/04/03 00:11:50;;;;;;;0.25;0.10;;;10.90;79.60;;;;;;5012473;28;20033;-72
2023/04/03 00:14:16;;;;;;;0.57;0.35;;;10.90;79.60;;;;;;5011397;28;20103;-72
2023/04/03 00:16:41;;;;;;;0.22;0.10;;;10.70;80.30;;;;;;5011011;28;20041;-72
2023/04/03 00:19:07;;;;;;;0.30;0.10;;;10.80;79.80;;;;;;5010871;28;20033;-72
2023/04/03 00:21:33;;;;;;;0.15;0.03;;;10.70;80.00;;;;;;5010258;28;20480;-72
2023/04/03 00:23:59;;;;;;;0.30;0.13;;;10.90;79.50;;;;;;5009185;28;20061;-72
2023/04/03 00:26:25;;;;;;;0.30;0.20;;;10.80;79.80;;;;;;5009756;28;20033;-72
2023/04/03 00:28:50;;;;;;;1.23;0.30;;;10.70;80.20;;;;;;5010810;28;20068;-72
2023/04/03 00:31:16;;;;;;;0.38;0.10;;;10.50;80.40;;;;;;5010131;28;20049;-73
2023/04/03 00:33:42;;;;;;;1.65;0.40;;;10.50;80.40;;;;;;5004599;28;20056;-72
2023/04/03 00:36:09;;;;;;;0.47;0.20;;;10.20;81.30;;;;;;5010171;28;20471;-72
2023/04/03 00:38:35;;;;;;;1.67;0.13;;;10.30;81.10;;;;;;5008728;28;20030;-72
2023/04/03 00:41:02;;;;;;;0.73;0.20;;;10.20;81.20;;;;;;5010938;28;20480;-72
2023/04/03 00:43:28;;;;;;;0.30;0.13;;;10.00;81.70;;;;;;5009055;28;20488;-72
2023/04/03 00:45:58;;;;;;;0.65;0.20;;;10.30;81.10;;;;;;5010476;28;20124;-72
2023/04/03 00:48:27;;;;;;;0.73;0.25;;;10.60;80.10;;;;;;5000921;28;20469;-73
2023/04/03 00:50:53;;;;;;;0.22;0.10;;;10.50;80.20;;;;;;5010468;28;20022;-72
2023/04/03 00:53:24;;;;;;;0.20;0.00;;;10.40;80.30;;;;;;5010874;28;20108;-72
2023/04/03 00:55:51;;;;;;;1.80;0.20;;;10.30;80.70;;;;;;5009908;28;20498;-72
2023/04/03 00:58:20;;;;;;;0.45;0.15;;;10.30;80.80;;;;;;5010718;28;20435;-72
2023/04/03 01:00:53;;;;;;;0.28;0.17;;;10.50;80.40;;;;;;5010794;28;20042;-72
2023/04/03 01:03:20;;;;;;;1.60;0.50;;;10.40;80.80;;;;;;5010102;28;20037;-72
2023/04/03 01:05:45;;;;;;;2.42;0.73;;;11.00;79.50;;;;;;5009878;28;20121;-72
2023/04/03 01:08:11;;;;;;;1.02;0.40;;;10.90;79.50;;;;;;5009006;28;20538;-72
2023/04/03 01:10:37;;;;;;;1.15;0.57;;;10.70;80.10;;;;;;5010822;28;20491;-72
2023/04/03 01:13:19;;;;;;;1.27;0.45;;;10.80;79.90;;;;;;5009842;28;20088;-72
2023/04/03 01:15:45;;;;;;;1.13;0.60;;;10.80;80.00;;;;;;5005197;28;20022;-72
2023/04/03 01:18:11;;;;;;;3.25;1.30;;;10.80;80.00;;;;;;5008550;28;20250;-72
2023/04/03 01:21:04;;;;;;;5.03;1.75;;;11.00;79.80;;;;;;5009968;28;20026;-72
2023/04/03 01:23:45;;;;;;;4.50;1.63;;;11.10;79.40;;;;;;4998126;28;20042;-73
2023/04/03 01:26:12;;;;;;;2.08;0.90;;;11.20;79.20;;;;;;5008583;28;20038;-72
2023/04/03 01:28:38;;;;;;;2.42;0.88;;;11.20;79.00;;;;;;5010402;28;20034;-72
2023/04/03 01:31:30;;;;;;;3.17;1.00;;;11.20;79.00;;;;;;5010087;28;20036;-72
2023/04/03 01:33:55;;;;;;;4.97;0.90;;;11.30;79.00;;;;;;5010164;28;20444;-72
2023/04/03 01:36:24;;;;;;;2.05;0.88;;;11.40;78.80;;;;;;5006469;28;20036;-72
2023/04/03 01:38:50;;;;;;;2.88;1.30;;;11.50;78.60;;;;;;5009942;28;20034;-72
2023/04/03 01:41:16;;;;;;;2.22;1.02;;;11.50;78.60;;;;;;5009444;28;20029;-72
2023/04/03 01:43:43;;;;;;;2.00;0.80;;;11.40;78.80;;;;;;5009744;28;20018;-72
2023/04/03 01:46:08;;;;;;;1.92;0.93;;;11.20;79.20;;;;;;5010002;28;20033;-72
2023/04/03 01:48:34;;;;;;;2.40;0.80;;;11.30;79.10;;;;;;5006913;28;20362;-72
2023/04/03 01:51:00;;;;;;;2.50;1.08;;;11.20;79.30;;;;;;5007881;28;20030;-72
2023/04/03 01:53:26;;;;;;;1.55;0.75;;;11.00;79.70;;;;;;5009118;28;20416;-72
2023/04/03 01:55:51;;;;;;;1.23;0.68;;;10.90;79.90;;;;;;5003058;28;20046;-72
2023/04/03 01:58:17;;;;;;;1.73;0.85;;;11.20;79.30;;;;;;5009034;28;20477;-72
2023/04/03 02:00:43;;;;;;;2.67;0.80;;;11.10;79.60;;;;;;5006750;28;20034;-72
2023/04/03 02:03:08;;;;;;;1.48;0.57;;;10.90;79.90;;;;;;5009343;28;20058;-72
2023/04/03 02:05:34;;;;;;;0.60;0.38;;;11.00;79.80;;;;;;5009712;28;20045;-72
2023/04/03 02:08:00;;;;;;;1.05;0.40;;;11.30;79.40;;;;;;5009669;28;20504;-72
2023/04/03 02:10:26;;;;;;;0.82;0.30;;;11.30;79.20;;;;;;5009301;28;20129;-72
2023/04/03 02:12:51;;;;;;;0.85;0.30;;;11.40;78.90;;;;;;5007548;28;20034;-72
2023/04/03 02:15:17;;;;;;;3.30;0.40;;;11.40;79.00;;;;;;5008903;28;20499;-72
2023/04/03 02:17:43;;;;;;;0.68;0.40;;;11.40;78.90;;;;;;5009665;28;20030;-72
2023/04/03 02:20:09;;;;;;;0.93;0.40;;;11.30;79.20;;;;;;5008287;28;20026;-72
2023/04/03 02:22:35;;;;;;;0.93;0.40;;;11.30;79.10;;;;;;5008408;28;20065;-72
2023/04/03 02:25:01;;;;;;;0.98;0.35;;;11.40;79.10;;;;;;5008817;28;20033;-72
2023/04/03 02:27:27;;;;;;;0.75;0.30;;;11.30;79.10;;;;;;5005357;28;20026;-72
2023/04/03 02:29:53;;;;;;;1.75;0.43;;;11.30;78.90;;;;;;5008323;28;20032;-72
2023/04/03 02:32:19;;;;;;;0.30;0.15;;;11.40;79.00;;;;;;5010617;28;20037;-72
2023/04/03 02:34:44;;;;;;;0.57;0.28;;;11.30;79.10;;;;;;5010754;28;20155;-72
2023/04/03 02:37:10;;;;;;;2.30;0.32;;;11.30;79.20;;;;;;5012558;28;20032;-72
2023/04/03 02:39:36;;;;;;;0.43;0.20;;;11.20;79.30;;;;;;5011312;28;20057;-72
2023/04/03 02:42:02;;;;;;;0.68;0.13;;;11.30;79.20;;;;;;5012517;28;20022;-72
2023/04/03 02:44:28;;;;;;;1.15;0.30;;;11.30;79.20;;;;;;5013378;28;20046;-72
2023/04/03 02:46:53;;;;;;;1.15;0.50;;;11.30;79.40;;;;;;5012893;28;20125;-72
2023/04/03 02:49:19;;;;;;;1.13;0.50;;;11.30;79.40;;;;;;5011851;28;20065;-72
2023/04/03 02:51:45;;;;;;;0.80;0.13;;;11.30;79.40;;;;;;5013199;28;20056;-72
2023/04/03 02:54:11;;;;;;;1.15;0.30;;;11.30;79.60;;;;;;5012070;28;20108;-72
2023/04/03 02:56:37;;;;;;;0.35;0.13;;;11.10;79.90;;;;;;5012998;28;20417;-73
2023/04/03 02:59:03;;;;;;;0.82;0.40;;;11.20;79.80;;;;;;5011981;28;20112;-71
2023/04/03 03:01:31;;;;;;;0.38;0.20;;;11.00;80.10;;;;;;5012501;28;20056;-72
2023/04/03 03:03:57;;;;;;;0.50;0.20;;;11.10;80.00;;;;;;5008488;28;20026;-72
2023/04/03 03:06:23;;;;;;;0.82;0.30;;;11.00;80.30;;;;;;5007764;28;20042;-71
2023/04/03 03:08:49;;;;;;;0.80;0.25;;;11.00;80.30;;;;;;5007547;28;20048;-72
2023/04/03 03:11:15;;;;;;;0.20;0.17;;;11.00;80.30;;;;;;5007791;28;20026;-72
2023/04/03 03:13:41;;;;;;;1.13;0.20;;;10.80;80.80;;;;;;5007386;28;20048;-71
2023/04/03 03:16:07;;;;;;;0.32;0.05;;;10.90;80.80;;;;;;5007638;28;20022;-72
2023/04/03 03:18:33;;;;;;;0.88;0.38;;;10.80;80.70;;;;;;5001750;28;20057;-72
2023/04/03 03:21:02;;;;;;;1.55;0.65;;;10.80;81.00;;;;;;5005226;28;20042;-71
2023/04/03 03:23:30;;;;;;;2.40;0.38;;;10.80;80.90;;;;;;5006033;28;20071;-72
2023/04/03 03:26:02;;;;;;;0.73;0.20;;;10.80;81.00;;;;;;5008192;28;20452;-72
2023/04/03 03:28:28;;;;;;;1.08;0.35;;;10.80;81.10;;;;;;5007731;28;20061;-72
2023/04/03 03:30:54;;;;;;;1.65;0.40;;;10.70;81.10;;;;;;5005627;28;20072;-72
2023/04/03 03:33:20;;;;;;;1.10;0.32;;;10.60;81.10;;;;;;5005793;28;20133;-72
2023/04/03 03:35:45;;;;;;;1.27;0.22;;;10.60;81.10;;;;;;5005052;28;20490;-72
2023/04/03 03:38:11;;;;;;;0.77;0.38;;;10.70;81.20;;;;;;5008139;28;20092;-72
2023/04/03 03:40:37;;;;;;;0.60;0.22;;;10.60;81.40;;;;;;5007461;28;20029;-72
2023/04/03 03:43:03;;;;;;;0.32;0.20;;;10.60;81.10;;;;;;5005717;28;20097;-72
2023/04/03 03:45:29;;;;;;;0.70;0.20;;;10.60;81.60;;;;;;5007113;28;20100;-72
2023/04/03 03:47:54;;;;;;;1.55;0.25;;;10.40;81.60;;;;;;5005208;28;20042;-72
2023/04/03 03:50:20;;;;;;;0.80;0.28;;;10.50;81.60;;;;;;5005070;28;20037;-72
2023/04/03 03:52:46;;;;;;;1.42;0.30;;;10.40;81.70;;;;;;5008238;28;20034;-72
2023/04/03 03:55:11;;;;;;;0.10;0.10;;;10.10;82.40;;;;;;5003064;28;20435;-72
2023/04/03 03:57:37;;;;;;;0.65;0.20;;;10.10;82.50;;;;;;5003456;28;20566;-72
2023/04/03 04:00:03;;;;;;;0.38;0.20;;;10.00;82.80;;;;;;5007496;28;20026;-72
2023/04/03 04:02:29;;;;;;;0.32;0.10;;;10.10;82.50;;;;;;5006960;28;20037;-72
2023/04/03 04:04:55;;;;;;;0.95;0.30;;;10.10;82.50;;;;;;5006981;28;20018;-72
2023/04/03 04:07:21;;;;;;;0.13;0.05;;;10.10;82.70;;;;;;5004732;28;20054;-72
2023/04/03 04:09:47;;;;;;;0.40;0.32;;;10.10;82.40;;;;;;5004078;28;20148;-72
2023/04/03 04:12:13;;;;;;;0.95;0.15;;;10.00;82.60;;;;;;5001678;28;20041;-72
2023/04/03 04:14:38;;;;;;;0.28;0.10;;;9.80;83.20;;;;;;5004722;28;20030;-71
2023/04/03 04:17:05;;;;;;;0.38;0.10;;;9.70;83.50;;;;;;5004585;28;20018;-72
2023/04/03 04:19:30;;;;;;;0.80;0.20;;;9.70;83.50;;;;;;5007069;28;20530;-72
2023/04/03 04:21:56;;;;;;;0.47;0.20;;;10.00;83.00;;;;;;5007665;28;20022;-72
2023/04/03 04:24:25;;;;;;;0.35;0.20;;;9.80;83.20;;;;;;5004397;28;20049;-72
2023/04/03 04:26:50;;;;;;;0.30;0.20;;;9.30;83.90;;;;;;4997759;28;20084;-72
2023/04/03 04:29:16;;;;;;;0.40;0.13;;;9.40;84.20;;;;;;5007534;28;20018;-72
2023/04/03 04:31:42;;;;;;;0.60;0.30;;;9.50;84.00;;;;;;5007348;28;20053;-71
2023/04/03 04:34:08;;;;;;;0.60;0.20;;;9.30;84.40;;;;;;5006918;28;20034;-72
2023/04/03 04:36:33;;;;;;;0.00;0.00;;;9.10;84.60;;;;;;5007069;28;20060;-72
2023/04/03 04:38:59;;;;;;;0.43;0.10;;;8.90;84.80;;;;;;5005427;28;20022;-72
2023/04/03 04:41:25;;;;;;;0.30;0.10;;;8.70;85.80;;;;;;5006540;28;20036;-72
2023/04/03 04:43:51;;;;;;;0.75;0.38;;;8.70;85.90;;;;;;5006284;28;20053;-72
2023/04/03 04:46:17;;;;;;;0.77;0.20;;;8.80;85.70;;;;;;5006641;28;20036;-72
2023/04/03 04:48:44;;;;;;;1.35;0.40;;;8.40;86.70;;;;;;4999352;28;20567;-72
2023/04/03 04:51:10;;;;;;;0.65;0.30;;;8.50;87.20;;;;;;5005177;28;20547;-72
2023/04/03 04:53:35;;;;;;;0.20;0.10;;;8.80;86.10;;;;;;5006047;28;20594;-72
2023/04/03 04:56:01;;;;;;;0.20;0.10;;;8.80;85.70;;;;;;5005927;28;20038;-72
2023/04/03 04:58:27;;;;;;;0.20;0.10;;;9.00;85.50;;;;;;5004882;28;20477;-72
2023/04/03 05:01:00;;;;;;;0.55;0.10;;;8.90;85.40;;;;;;5006234;28;20034;-71
2023/04/03 05:03:26;;;;;;;0.10;0.10;;;8.90;85.70;;;;;;5003019;28;20472;-71
2023/04/03 05:05:52;;;;;;;1.05;0.40;;;8.80;85.70;;;;;;5007364;28;20034;-72
2023/04/03 05:08:17;;;;;;;0.65;0.20;;;8.60;86.10;;;;;;4999007;28;20124;-72
2023/04/03 05:10:45;;;;;;;1.23;0.28;;;8.80;85.90;;;;;;4998673;28;20053;-71
2023/04/03 05:13:11;;;;;;;0.35;0.25;;;9.00;85.90;;;;;;5004442;28;20053;-72
2023/04/03 05:15:37;;;;;;;0.10;0.10;;;8.80;86.10;;;;;;5000018;28;20030;-71
2023/04/03 05:18:04;;;;;;;0.40;0.10;;;8.70;86.40;;;;;;5000623;28;20026;-72
2023/04/03 05:20:30;;;;;;;0.47;0.15;;;8.70;86.30;;;;;;5002764;28;20034;-72
2023/04/03 05:22:56;;;;;;;0.82;0.17;;;8.50;87.40;;;;;;4999373;28;20030;-70
2023/04/03 05:25:22;;;;;;;0.63;0.20;;;8.30;89.10;;;;;;5002062;28;20029;-71
2023/04/03 05:27:47;;;;;;;0.03;0.03;;;8.30;88.30;;;;;;5006482;28;20537;-72
2023/04/03 05:30:13;;;;;;;1.00;0.30;;;8.70;87.10;;;;;;5005543;28;20036;-73
2023/04/03 05:32:39;;;;;;;0.32;0.10;;;8.80;86.90;;;;;;5004931;28;20043;-72
2023/04/03 05:35:06;;;;;;;0.20;0.10;;;8.90;86.40;;;;;;4997405;28;20030;-74
2023/04/03 05:37:32;;;;;;;0.35;0.10;;;8.90;86.40;;;;;;4998410;28;20069;-74
2023/04/03 05:39:57;;;;;;;0.25;0.10;;;8.80;86.70;;;;;;5000348;28;20038;-74
2023/04/03 05:42:23;;;;;;;1.08;0.22;;;8.90;86.50;;;;;;5005892;28;20030;-74
2023/04/03 05:44:49;;;;;;;0.20;0.05;;;9.10;86.30;;;;;;5001727;28;20038;-73
2023/04/03 05:47:16;;;;;;;0.03;0.00;;;8.80;86.90;;;;;;5002227;28;20033;-73
2023/04/03 05:49:42;;;;;;;1.25;0.20;;;8.90;86.60;;;;;;5002378;28;20038;-74
2023/04/03 05:52:28;;;;;;;0.65;0.30;;;8.90;86.70;;;;;;5002038;28;20039;-74
2023/04/03 05:54:54;;;;;;;0.40;0.10;;;8.80;87.00;;;;;;5002879;28;20033;-73
2023/04/03 05:57:20;;;;;;;0.75;0.22;;;8.70;87.50;;;;;;5001189;28;20108;-75
2023/04/03 05:59:47;;;;;;;1.77;0.25;;;8.80;87.60;;;;;;5002457;28;20033;-75
2023/04/03 06:02:18;;;;;;;0.40;0.10;;;8.80;87.40;;;;;;5002900;28;20511;-75
2023/04/03 06:04:44;;;;;;;0.85;0.20;;;9.00;86.40;;;;;;5002707;28;20398;-75
2023/04/03 06:07:20;;;;;;;0.40;0.30;;;9.00;86.60;;;;;;5003421;28;20127;-75
2023/04/03 06:09:46;;;;;;;0.38;0.03;;;9.10;86.90;;;;;;5005907;28;20022;-75
2023/04/03 06:12:12;;;;;;;0.10;0.10;;;9.60;84.50;;;;;;5006653;28;20057;-75
2023/04/03 06:14:38;;;;;;;0.70;0.22;;;9.60;84.80;;;;;;5005811;28;20438;-75
2023/04/03 06:17:04;;;;;;;0.17;0.10;;;9.40;85.20;;;;;;5005305;28;20122;-76
2023/04/03 06:19:30;;;;;;;0.52;0.13;;;9.40;85.30;;;;;;5006392;28;20033;-76
2023/04/03 06:21:56;;;;;;;0.40;0.22;;;9.40;85.30;;;;;;5006818;28;20491;-75
2023/04/03 06:24:23;;;;;;;0.00;0.00;;;9.30;85.70;;;;;;5006342;28;20030;-75
2023/04/03 06:26:51;;;;;;;0.08;0.00;;;9.20;85.80;;;;;;5006663;28;20044;-75
2023/04/03 06:29:17;;;;;;;1.33;0.40;;;9.70;84.30;;;;;;5003032;28;20092;-75
2023/04/03 06:31:43;;;;;;;2.40;0.82;;;9.90;83.50;;;;;;5005483;28;20030;-75
2023/04/03 06:34:10;;;;;;;2.53;0.73;;;9.90;84.10;;;;;;5006855;28;20040;-74
2023/04/03 06:36:36;;;;;;;1.15;0.47;;;10.10;82.70;;;;;;5005890;28;20495;-74
2023/04/03 06:39:03;;;;;;;1.52;0.70;;;10.60;81.40;;;;;;5005906;28;20058;-74
2023/04/03 06:41:29;;;;;;;1.38;0.20;;;10.70;81.00;;;;;;5005559;28;20644;-75
2023/04/03 06:43:57;;;;;;;1.27;0.30;;;10.70;80.80;;;;;;5005584;28;20050;-74
2023/04/03 06:46:24;;;;;;;0.52;0.17;;;10.70;81.00;;;;;;5005412;28;20068;-75
2023/04/03 06:48:50;;;;;;;0.17;0.10;;;10.60;81.70;;;;;;5003255;28;20034;-75
2023/04/03 06:51:18;;;;;;;2.80;0.40;;;10.80;80.50;;;;;;5005494;28;20061;-75
2023/04/03 06:53:45;;;;;;;5.28;0.30;;;10.80;81.10;;;;;;5002543;28;20594;-75
2023/04/03 06:56:11;;;;;;;0.20;0.10;;;10.80;81.30;;;;;;5004969;28;20077;-75
2023/04/03 06:58:37;;;;;;;0.70;0.20;;;10.90;81.40;;;;;;5005434;28;20061;-74
2023/04/03 07:01:03;;;;;;;0.55;0.22;;;11.20;79.20;;;;;;5006832;28;20464;-75
2023/04/03 07:03:29;;;;;;;0.98;0.20;;;13.50;77.10;;;;;;5006893;28;20033;-75
2023/04/03 07:05:55;;;;;;;1.10;0.10;;;16.40;73.10;;;;;;5006883;28;20032;-75
2023/04/03 07:08:22;;;;;;;4.15;0.20;;;18.10;69.50;;;;;;5007292;28;20100;-75
2023/04/03 07:10:48;;;;;;;0.52;0.28;;;18.10;70.10;;;;;;5007289;28;20022;-75
2023/04/03 07:13:14;;;;;;;10.40;1.15;;;18.00;68.60;;;;;;5007342;28;20029;-75
2023/04/03 07:15:40;;;;;;;1.27;0.22;;;19.50;68.20;;;;;;5007154;28;20060;-75
2023/04/03 07:18:05;;;;;;;0.45;0.10;;;18.70;66.90;;;;;;5007469;28;20471;-74
2023/04/03 07:20:31;;;;;;;0.22;0.13;;;19.20;66.10;;;;;;5005544;28;20448;-72
2023/04/03 07:22:57;;;;;;;0.00;0.00;;;17.00;66.90;;;;;;4995923;28;20037;-75
2023/04/03 07:25:22;;;;;;;0.88;0.28;;;14.20;73.30;;;;;;5002514;28;20069;-75
2023/04/03 07:27:49;;;;;;;5.72;0.20;;;12.90;73.50;;;;;;5004567;28;20029;-76
2023/04/03 07:30:15;;;;;;;1.85;0.20;;;12.30;74.80;;;;;;5003353;28;20415;-75
2023/04/03 07:32:41;;;;;;;1.42;0.20;;;12.10;75.40;;;;;;4996992;28;20610;-74
2023/04/03 07:35:07;;;;;;;0.52;0.15;;;11.90;75.10;;;;;;5004123;28;20041;-73
2023/04/03 07:37:32;;;;;;;0.80;0.20;;;12.00;75.50;;;;;;4993006;28;20038;-74
2023/04/03 07:39:58;;;;;;;0.63;0.30;;;11.90;76.00;;;;;;5001379;28;20030;-73
2023/04/03 07:42:27;;;;;;;0.73;0.10;;;12.00;75.40;;;;;;5004093;28;20022;-73
2023/04/03 07:44:53;;;;;;;2.53;0.20;;;11.90;75.40;;;;;;5005447;28;20041;-73
2023/04/03 07:47:20;;;;;;;0.40;0.20;;;11.90;76.00;;;;;;5005801;28;20053;-73
2023/04/03 07:49:46;;;;;;;0.70;0.20;;;11.80;75.30;;;;;;4999833;28;20026;-74
2023/04/03 07:52:12;;;;;;;1.33;0.20;;;11.90;75.40;;;;;;5005325;28;20033;-73
2023/04/03 07:54:37;;;;;;;0.65;0.30;;;11.90;75.40;;;;;;5005728;28;20038;-74
2023/04/03 07:57:03;;;;;;;0.55;0.20;;;12.00;75.20;;;;;;5009431;28;20029;-75
2023/04/03 07:59:29;;;;;;;0.03;0.03;;;12.20;75.20;;;;;;5004719;28;20037;-73
2023/04/03 08:01:55;;;;;;;0.52;0.20;;;12.20;74.80;;;;;;5001934;28;20029;-73
2023/04/03 08:04:21;;;;;;;0.77;0.20;;;12.10;75.00;;;;;;5004663;28;20053;-73
2023/04/03 08:06:47;;;;;;;0.93;0.20;;;12.20;75.30;;;;;;5005944;28;20536;-73
2023/04/03 08:09:16;;;;;;;0.95;0.20;;;12.30;73.90;;;;;;5007544;28;20626;-74
2023/04/03 08:11:41;;;;;;;0.43;0.20;;;12.40;74.20;;;;;;5006853;28;20069;-73
2023/04/03 08:14:07;;;;;;;2.08;0.30;;;12.40;74.20;;;;;;5008463;28;20077;-72
2023/04/03 08:16:33;;;;;;;1.52;0.40;;;12.40;73.70;;;;;;5008253;28;20519;-73
2023/04/03 08:18:59;;;;;;;0.80;0.28;;;12.50;73.90;;;;;;5008749;28;20076;-72
2023/04/03 08:21:25;;;;;;;0.80;0.20;;;12.50;74.60;;;;;;5008008;28;20088;-72
2023/04/03 08:23:51;;;;;;;1.02;0.22;;;12.70;74.50;;;;;;5006814;28;20030;-73
2023/04/03 08:26:21;;;;;;;0.30;0.15;;;12.70;74.10;;;;;;5004511;28;20033;-72
2023/04/03 08:28:47;;;;;;;0.50;0.10;;;12.70;73.60;;;;;;5007223;28;20112;-72
2023/04/03 08:31:19;;;;;;;3.20;0.30;;;12.80;73.30;;;;;;5007627;28;20048;-71
2023/04/03 08:33:46;;;;;;;1.73;0.38;;;12.90;74.00;;;;;;5005628;28;20586;-73
2023/04/03 08:36:24;;;;;;;0.80;0.40;;;13.00;73.30;;;;;;5006433;28;20036;-73
2023/04/03 08:38:50;;;;;;;0.95;0.30;;;13.10;73.00;;;;;;5007243;28;20065;-73
2023/04/03 08:41:30;;;;;;;0.63;0.30;;;13.10;73.20;;;;;;5006187;28;20029;-73
2023/04/03 08:44:26;;;;;;;38.30;2.25;;;13.20;72.80;;;;;;5005931;28;20480;-72
2023/04/03 08:47:04;;;;;;;0.95;0.20;;;13.30;72.80;;;;;;5001220;28;20072;-74
2023/04/03 08:49:47;;;;;;;3.88;1.00;;;13.30;71.10;;;;;;5002478;28;20393;-73
2023/04/03 08:52:17;;;;;;;1.95;0.40;;;13.30;71.80;;;;;;5006111;28;20072;-72
2023/04/03 08:55:00;;;;;;;5.05;1.98;;;13.60;72.30;;;;;;5004644;28;20525;-74
2023/04/03 08:57:35;;;;;;;0.85;0.20;;;13.80;70.60;;;;;;5006181;28;20031;-73
2023/04/03 09:00:07;;;;;;;13.98;5.43;;;13.70;68.40;;;;;;5004232;28;20483;-74
2023/04/03 09:02:49;;;;;;;1.17;0.40;;;13.90;68.80;;;;;;5003958;28;20025;-74
2023/04/03 09:05:22;;;;;;;4.88;1.58;;;15.10;68.00;;;;;;5001459;28;20045;-73
2023/04/03 09:08:04;;;;;;;25.25;8.80;;;19.00;66.50;;;;;;5000679;28;20520;-74
2023/04/03 09:10:34;;;;;;;2.05;0.35;;;20.60;65.10;;;;;;5004239;28;20145;-74
2023/04/03 09:13:19;;;;;;;8.57;2.60;;;21.10;61.20;;;;;;5005582;28;20108;-74
2023/04/03 09:15:45;;;;;;;0.60;0.30;;;20.10;61.40;;;;;;5005520;28;20036;-74
2023/04/03 09:18:22;;;;;;;1.95;0.30;;;21.50;60.00;;;;;;5004476;28;20026;-74
2023/04/03 09:21:16;;;;;;;1.55;0.30;;;20.40;57.30;;;;;;5002299;28;20022;-74
2023/04/03 09:23:48;;;;;;;2.90;0.55;;;20.60;58.80;;;;;;5003402;28;20092;-75
2023/04/03 09:26:16;;;;;;;14.35;0.98;;;20.10;57.60;;;;;;5005356;28;20056;-74
2023/04/03 09:28:42;;;;;;;2.65;1.00;;;20.30;57.30;;;;;;5004914;28;20057;-73
2023/04/03 09:31:36;;;;;;;3.40;1.20;;;19.60;55.90;;;;;;5005331;28;20053;-74
2023/04/03 09:34:06;;;;;;;0.57;0.13;;;20.80;57.50;;;;;;4999748;28;20116;-75
2023/04/03 09:36:53;;;;;;;1.13;0.22;;;21.20;55.70;;;;;;5005796;28;20040;-75
2023/04/03 09:39:28;;;;;;;5.28;0.35;;;21.60;55.10;;;;;;5002812;28;20598;-74
2023/04/03 09:41:58;;;;;;;1.17;0.20;;;20.80;56.30;;;;;;5008130;28;20033;-74
2023/04/03 09:44:27;;;;;;;1.27;0.15;;;21.10;55.30;;;;;;5008762;28;20038;-74
2023/04/03 09:46:53;;;;;;;0.45;0.10;;;20.40;54.70;;;;;;5008564;28;20064;-74
2023/04/03 09:49:19;;;;;;;1.30;0.60;;;19.80;55.20;;;;;;5008680;28;20029;-74
2023/04/03 09:51:45;;;;;;;69.07;37.75;;;18.80;56.40;;;;;;5008799;28;20034;-75
2023/04/03 09:54:37;;;;;;;7.00;2.58;;;18.00;56.40;;;;;;5009045;28;20070;-75
2023/04/03 09:57:14;;;;;;;2.20;0.20;;;17.60;58.20;;;;;;5006590;28;20123;-73
2023/04/03 10:00:04;;;;;;;1.85;0.50;;;16.80;57.40;;;;;;5002982;28;20026;-75
2023/04/03 10:02:39;;;;;;;4.50;0.10;;;16.50;56.70;;;;;;5005783;28;20022;-74
2023/04/03 10:05:27;;;;;;;0.00;0.00;;;16.40;56.10;;;;;;5008890;28;20428;-74
2023/04/03 10:08:12;;;;;;;2.08;0.10;;;16.50;53.30;;;;;;5005471;28;20041;-74
2023/04/03 10:10:40;;;;;;;4.63;0.20;;;16.50;53.50;;;;;;5004722;28;20588;-74
2023/04/03 10:13:20;;;;;;;0.00;0.00;;;16.80;55.10;;;;;;5002199;28;20045;-73
2023/04/03 10:16:12;;;;;;;0.15;0.00;;;16.90;52.30;;;;;;5008559;28;20022;-75
2023/04/03 10:18:47;;;;;;;0.10;0.05;;;16.80;51.60;;;;;;5003129;28;20036;-74
2023/04/03 10:21:30;;;;;;;0.00;0.00;;;17.00;52.10;;;;;;5008886;28;20030;-74
2023/04/03 10:24:21;;;;;;;0.10;0.00;;;17.20;52.20;;;;;;5006757;28;20061;-74
2023/04/03 10:26:49;;;;;;;1.00;0.20;;;17.30;52.10;;;;;;5005395;28;20361;-73
2023/04/03 10:29:21;;;;;;;0.10;0.10;;;17.30;52.00;;;;;;5008417;28;20034;-74
2023/04/03 10:32:25;;;;;;;0.52;0.00;;;17.30;50.80;;;;;;5008171;28;23264;-75
2023/04/03 10:35:00;;;;;;;0.00;0.00;;;17.20;50.60;;;;;;5006499;28;20042;-74
2023/04/03 10:37:51;;;;;;;2.28;0.32;;;17.40;49.40;;;;;;5007266;28;20062;-74
2023/04/03 10:40:51;;;;;;;0.05;0.05;;;17.50;50.90;;;;;;4979240;28;20042;-74
2023/04/03 10:43:41;;;;;;;0.00;0.00;;;17.20;47.40;;;;;;5023325;28;20092;-74
2023/04/03 10:46:36;;;;;;;0.40;0.25;;;17.30;47.50;;;;;;5007864;28;20796;-75
2023/04/03 10:49:17;;;;;;;;;;;17.80;48.70;;;;;;4992296;28;20045;-74
2023/04/03 10:51:49;;;;;;;1.45;0.30;;;18.20;49.60;;;;;;5007532;28;20382;-75
2023/04/03 10:54:39;;;;;;;0.85;0.10;;;17.80;46.40;;;;;;5002741;28;20037;-73
2023/04/03 10:57:08;;;;;;;0.52;0.20;;;17.70;49.20;;;;;;5003538;28;20105;-74
2023/04/03 10:59:41;;;;;;;0.00;0.00;;;17.80;50.20;;;;;;5003455;28;20092;-74
2023/04/03 11:02:19;;;;;;;0.20;0.13;;;17.90;47.60;;;;;;5004475;28;20030;-74
2023/04/03 11:04:50;;;;;;;0.20;0.10;;;17.90;49.20;;;;;;5006872;28;20064;-75
2023/04/03 11:07:26;;;;;;;3.65;0.20;;;18.00;48.80;;;;;;5007535;28;20030;-74
2023/04/03 11:10:00;;;;;;;0.17;0.00;;;17.80;48.20;;;;;;5007828;28;20037;-74
2023/04/03 11:12:45;;;;;;;0.00;0.00;;;17.40;45.40;;;;;;5007916;28;20057;-74
2023/04/03 11:15:17;;;;;;;1.95;0.10;;;17.50;45.40;;;;;;5006135;28;20429;-74
2023/04/03 11:18:01;;;;;;;5.22;0.20;;;17.70;46.30;;;;;;5002455;28;20033;-74
2023/04/03 11:20:34;;;;;;;0.40;0.05;;;17.80;45.60;;;;;;5004744;28;20457;-74
2023/04/03 11:23:12;;;;;;;0.77;0.10;;;18.10;45.50;;;;;;5003050;28;20506;-74
2023/04/03 11:25:41;;;;;;;0.10;0.10;;;18.10;46.00;;;;;;5007145;28;20608;-74
2023/04/03 11:28:13;;;;;;;0.47;0.00;;;18.50;46.00;;;;;;5007092;28;20037;-76
2023/04/03 11:30:43;;;;;;;1.48;0.10;;;18.30;43.60;;;;;;5007291;28;20060;-73
2023/04/03 11:33:31;;;;;;;0.35;0.10;;;18.40;45.30;;;;;;5003328;28;20034;-75
2023/04/03 11:36:23;;;;;;;2.10;0.10;;;18.10;44.00;;;;;;4997441;28;20525;-76
2023/04/03 11:38:53;;;;;;;0.00;0.00;;;18.40;45.80;;;;;;5003346;28;20038;-75
2023/04/03 11:41:27;;;;;;;0.05;0.00;;;18.50;44.80;;;;;;5001716;28;20021;-75
2023/04/03 11:43:59;;;;;;;0.22;0.05;;;18.00;43.20;;;;;;5003836;28;20472;-74
2023/04/03 11:46:57;;;;;;;0.10;0.03;;;18.20;44.30;;;;;;5003629;28;20029;-75
2023/04/03 11:50:01;;;;;;;0.00;0.00;;;17.80;43.80;;;;;;5003734;28;20064;-75
2023/04/03 11:52:39;;;;;;;0.28;0.17;;;17.80;43.80;;;;;;4996229;28;20161;-76
2023/04/03 11:55:20;;;;;;;1.65;0.10;;;18.40;44.60;;;;;;5002942;28;20100;-76
2023/04/03 11:57:58;;;;;;;0.00;0.00;;;18.10;43.20;;;;;;5003827;28;20048;-75
2023/04/03 12:00:43;;;;;;;0.00;0.00;;;18.50;44.80;;;;;;5018115;28;20673;-75
2023/04/03 12:03:41;;;;;;;;;;;18.40;42.30;;;;;;5003410;28;20030;-75
2023/04/03 12:06:09;;;;;;;0.00;0.00;;;18.30;43.50;;;;;;4970039;28;19914;-75
2023/04/03 12:08:49;;;;;;;1.55;0.00;;;18.30;44.10;;;;;;5003166;28;20068;-75
2023/04/03 12:11:23;;;;;;;0.13;0.00;;;18.40;44.00;;;;;;5002392;28;20026;-75
2023/04/03 12:13:49;;;;;;;1.85;0.10;;;18.30;42.90;;;;;;5002111;28;20049;-75
2023/04/03 12:16:28;;;;;;;1.20;0.17;;;18.30;43.30;;;;;;5003592;28;20040;-76
2023/04/03 12:18:58;;;;;;;0.35;0.17;;;18.50;44.30;;;;;;5000100;28;20121;-75
2023/04/03 12:21:29;;;;;;;3.85;0.17;;;18.80;43.60;;;;;;5003105;28;20096;-76
2023/04/03 12:24:07;;;;;;;0.30;0.10;;;18.80;42.80;;;;;;5003549;28;20054;-76
2023/04/03 12:26:45;;;;;;;16.58;1.23;;;18.40;42.30;;;;;;5002366;28;20475;-76
2023/04/03 12:29:40;;;;;;;0.20;0.10;;;18.50;43.00;;;;;;5003168;28;20026;-75
2023/04/03 12:32:32;;;;;;;0.00;0.00;;;18.60;43.20;;;;;;5001779;28;20475;-74
2023/04/03 12:35:34;;;;;;;2.05;0.13;;;18.60;42.70;;;;;;5002672;28;20064;-74
2023/04/03 12:38:18;;;;;;;0.68;0.28;;;18.50;42.30;;;;;;4938767;28;20048;-74
2023/04/03 12:40:50;;;;;;;1.27;0.13;;;18.60;40.50;;;;;;5000437;28;20042;-74
2023/04/03 12:43:27;;;;;;;0.20;0.10;;;19.00;42.50;;;;;;5002677;28;20065;-74
2023/04/03 12:46:02;;;;;;;7.05;0.70;;;18.40;42.20;;;;;;5002254;28;20555;-74
2023/04/03 12:48:45;;;;;;;0.00;0.00;;;18.80;44.40;;;;;;5000572;28;20095;-73
2023/04/03 12:51:18;;;;;;;1.17;0.38;;;18.80;42.50;;;;;;4999023;28;20022;-74
2023/04/03 12:53:45;;;;;;;1.63;0.20;;;18.50;41.60;;;;;;5002865;28;20463;-74
2023/04/03 12:56:31;;;;;;;0.47;0.10;;;18.20;41.00;;;;;;5002898;28;20100;-73
2023/04/03 12:59:33;;;;;;;0.43;0.20;;;18.80;43.00;;;;;;5002087;28;20025;-74
2023/04/03 13:02:10;;;;;;;2.05;0.20;;;18.60;41.50;;;;;;4929668;29;20049;-73
2023/04/03 13:04:38;;;;;;;3.83;0.10;;;18.80;41.70;;;;;;4989900;28;20041;-73
2023/04/03 13:07:04;;;;;;;0.25;0.05;;;18.60;41.10;;;;;;5002691;28;20037;-74